createdAt,value
2022-10-21T00:00:22.258Z,4.03
2022-10-21T00:02:49.676Z,4.00
2022-10-21T00:05:17.070Z,3.80
2022-10-21T00:07:44.476Z,3.70
2022-10-21T00:10:12.061Z,4.00
2022-10-21T00:12:40.036Z,3.70
2022-10-21T00:15:09.099Z,3.60
2022-10-21T00:17:37.562Z,3.67
2022-10-21T00:20:09.422Z,3.97
2022-10-21T00:22:37.152Z,3.83
2022-10-21T00:25:04.820Z,3.87
2022-10-21T00:27:32.203Z,3.80
2022-10-21T00:30:00.605Z,4.07
2022-10-21T00:32:27.962Z,3.93
2022-10-21T00:34:55.303Z,4.30
2022-10-21T00:37:22.696Z,3.87
2022-10-21T00:39:50.055Z,3.90
2022-10-21T00:42:18.886Z,3.73
2022-10-21T00:45:02.320Z,3.90
2022-10-21T00:47:30.069Z,3.60
2022-10-21T00:50:04.528Z,3.73
2022-10-21T00:52:34.507Z,4.07
2022-10-21T00:55:03.299Z,3.87
2022-10-21T00:57:33.020Z,4.30
2022-10-21T01:00:02.001Z,4.33
2022-10-21T01:02:30.055Z,4.30
2022-10-21T01:05:00.150Z,3.93
2022-10-21T01:07:27.739Z,4.00
2022-10-21T01:09:55.068Z,4.50
2022-10-21T01:12:36.040Z,4.30
2022-10-21T01:15:23.647Z,3.80
2022-10-21T01:17:55.943Z,4.10
2022-10-21T01:20:26.280Z,3.70
2022-10-21T01:23:12.477Z,4.50
2022-10-21T01:26:02.884Z,3.97
2022-10-21T01:28:49.366Z,3.97
2022-10-21T01:31:23.585Z,4.10
2022-10-21T01:33:57.072Z,4.30
2022-10-21T01:36:28.490Z,4.47
2022-10-21T01:38:55.863Z,4.20
2022-10-21T01:41:26.423Z,4.10
2022-10-21T01:43:56.713Z,4.07
2022-10-21T01:46:28.841Z,4.20
2022-10-21T01:48:58.871Z,4.30
2022-10-21T01:51:27.749Z,4.50
2022-10-21T01:54:07.580Z,3.90
2022-10-21T01:56:36.130Z,3.80
2022-10-21T01:59:04.625Z,4.20
2022-10-21T02:01:33.200Z,4.33
2022-10-21T02:04:02.501Z,4.50
2022-10-21T02:06:29.882Z,4.43
2022-10-21T02:08:57.295Z,4.30
2022-10-21T02:11:24.913Z,4.30
2022-10-21T02:13:55.147Z,3.60
2022-10-21T02:16:25.036Z,3.80
2022-10-21T02:18:52.463Z,3.70
2022-10-21T02:21:21.807Z,3.53
2022-10-21T02:23:58.165Z,3.77
2022-10-21T02:26:26.888Z,4.20
2022-10-21T02:28:55.608Z,3.93
2022-10-21T02:31:23.022Z,3.87
2022-10-21T02:33:53.411Z,3.80
2022-10-21T02:36:31.395Z,4.10
2022-10-21T02:39:01.310Z,4.00
2022-10-21T02:41:29.688Z,4.30
2022-10-21T02:44:01.865Z,4.13
2022-10-21T02:46:37.605Z,4.10
2022-10-21T02:49:05.023Z,4.13
2022-10-21T02:51:32.611Z,4.27
2022-10-21T02:54:00.025Z,4.20
2022-10-21T02:56:27.512Z,3.97
2022-10-21T02:58:55.066Z,3.63
2022-10-21T03:01:22.441Z,4.10
2022-10-21T03:03:49.764Z,3.73
2022-10-21T03:06:17.172Z,3.90
2022-10-21T03:08:44.562Z,3.93
2022-10-21T03:11:11.944Z,3.87
2022-10-21T03:13:39.304Z,4.33
2022-10-21T03:16:06.934Z,3.83
2022-10-21T03:18:34.367Z,4.10
2022-10-21T03:21:01.681Z,3.60
2022-10-21T03:23:29.032Z,3.83
2022-10-21T03:25:56.379Z,3.87
2022-10-21T03:28:23.802Z,4.07
2022-10-21T03:30:51.218Z,3.87
2022-10-21T03:33:18.580Z,3.93
2022-10-21T03:35:45.933Z,3.83
2022-10-21T03:38:13.279Z,3.63
2022-10-21T03:40:40.568Z,4.30
2022-10-21T03:43:07.937Z,3.93
2022-10-21T03:45:35.276Z,3.77
2022-10-21T03:48:02.800Z,4.00
2022-10-21T03:50:33.538Z,4.17
2022-10-21T03:53:02.380Z,3.97
2022-10-21T03:55:34.157Z,4.03
2022-10-21T03:58:01.696Z,3.63
2022-10-21T04:00:31.594Z,4.00
2022-10-21T04:02:59.191Z,4.20
2022-10-21T04:05:26.547Z,3.90
2022-10-21T04:07:53.902Z,4.00
2022-10-21T04:10:21.394Z,4.07
2022-10-21T04:12:48.761Z,3.93
2022-10-21T04:15:16.123Z,3.83
2022-10-21T04:17:46.016Z,4.10
2022-10-21T04:20:13.383Z,4.57
2022-10-21T04:22:40.980Z,3.83
2022-10-21T04:25:08.710Z,3.63
2022-10-21T04:27:36.069Z,3.83
2022-10-21T04:30:03.687Z,4.07
2022-10-21T04:32:31.215Z,3.93
2022-10-21T04:34:58.571Z,4.10
2022-10-21T04:37:25.878Z,4.60
2022-10-21T04:39:53.280Z,4.10
2022-10-21T04:42:20.658Z,4.20
2022-10-21T04:44:48.043Z,4.20
2022-10-21T04:47:15.564Z,4.30
2022-10-21T04:49:42.941Z,4.20
2022-10-21T04:52:10.261Z,4.23
2022-10-21T04:54:37.649Z,4.50
2022-10-21T04:57:04.969Z,3.83
2022-10-21T04:59:32.404Z,4.07
2022-10-21T05:04:27.079Z,4.00
2022-10-21T05:06:54.463Z,4.23
2022-10-21T05:09:21.933Z,4.90
2022-10-21T05:11:49.298Z,3.97
2022-10-21T05:14:20.036Z,4.40
2022-10-21T05:16:50.007Z,4.33
2022-10-21T05:19:17.341Z,4.90
2022-10-21T05:21:46.639Z,5.00
2022-10-21T05:24:14.902Z,4.50
2022-10-21T05:26:42.287Z,3.80
2022-10-21T05:29:09.778Z,4.30
2022-10-21T05:31:37.197Z,4.53
2022-10-21T05:34:04.576Z,4.33
2022-10-21T05:36:31.971Z,4.17
2022-10-21T05:38:59.354Z,4.27
2022-10-21T05:41:26.881Z,5.33
2022-10-21T05:43:54.259Z,4.70
2022-10-21T05:46:21.668Z,4.17
2022-10-21T05:51:26.611Z,4.30
2022-10-21T05:53:54.412Z,4.13
2022-10-21T05:56:21.768Z,4.30
2022-10-21T05:58:49.287Z,3.90
2022-10-21T06:01:16.617Z,3.80
2022-10-21T06:03:44.060Z,4.40
2022-10-21T06:06:11.474Z,4.30
2022-10-21T06:08:39.496Z,3.90
2022-10-21T06:11:08.473Z,4.30
2022-10-21T06:13:36.389Z,4.40
2022-10-21T06:18:36.760Z,3.93
2022-10-21T06:21:04.323Z,4.20
2022-10-21T06:23:32.022Z,4.60
2022-10-21T06:26:00.466Z,4.50
2022-10-21T06:28:28.421Z,4.40
2022-10-21T06:30:56.090Z,4.20
2022-10-21T06:33:26.841Z,4.13
2022-10-21T06:35:55.644Z,4.03
2022-10-21T06:38:23.801Z,4.13
2022-10-21T06:40:51.115Z,4.13
2022-10-21T06:43:18.562Z,4.23
2022-10-21T06:45:46.025Z,4.53
2022-10-21T06:48:13.856Z,4.47
2022-10-21T06:50:41.353Z,4.27
2022-10-21T06:53:08.698Z,4.17
2022-10-21T06:55:36.059Z,4.63
2022-10-21T06:58:03.454Z,4.90
2022-10-21T07:03:02.980Z,5.13
2022-10-21T07:05:30.294Z,4.63
2022-10-21T07:07:57.699Z,4.70
2022-10-21T07:10:25.155Z,6.67
2022-10-21T07:12:55.319Z,6.20
2022-10-21T07:15:22.705Z,5.00
2022-10-21T07:17:50.021Z,4.93
2022-10-21T07:20:17.392Z,5.40
2022-10-21T07:22:44.739Z,5.47
2022-10-21T07:25:13.725Z,5.77
2022-10-21T07:27:43.430Z,5.37
2022-10-21T07:30:13.487Z,5.50
2022-10-21T07:32:40.894Z,5.23
2022-10-21T07:35:08.449Z,5.40
2022-10-21T07:37:36.157Z,5.60
2022-10-21T07:40:05.649Z,5.27
2022-10-21T07:42:33.007Z,5.80
2022-10-21T07:45:01.762Z,6.00
2022-10-21T07:47:29.254Z,5.73
2022-10-21T07:49:57.704Z,5.63
2022-10-21T07:52:25.107Z,5.30
2022-10-21T07:54:52.506Z,6.17
2022-10-21T07:57:19.850Z,5.87
2022-10-21T07:59:47.177Z,5.23
2022-10-21T08:02:15.276Z,5.77
2022-10-21T08:04:42.729Z,5.80
2022-10-21T08:07:13.106Z,5.80
2022-10-21T08:09:41.379Z,6.70
2022-10-21T08:12:10.490Z,5.30
2022-10-21T08:14:40.819Z,5.87
2022-10-21T08:17:08.166Z,5.53
2022-10-21T08:19:35.607Z,6.20
2022-10-21T08:22:03.106Z,6.53
2022-10-21T08:24:30.421Z,6.07
2022-10-21T08:26:57.791Z,6.33
2022-10-21T08:29:25.489Z,6.33
2022-10-21T08:31:52.914Z,6.53
2022-10-21T08:34:20.358Z,5.67
2022-10-21T08:36:47.921Z,5.90
2022-10-21T08:39:15.603Z,6.13
2022-10-21T08:41:49.314Z,6.77
2022-10-21T08:44:19.731Z,6.27
2022-10-21T08:46:50.323Z,7.03
2022-10-21T08:49:25.189Z,6.80
2022-10-21T08:52:13.544Z,6.83
2022-10-21T08:54:40.831Z,6.80
2022-10-21T08:57:12.265Z,6.03
2022-10-21T08:59:42.221Z,6.33
2022-10-21T09:02:18.818Z,6.60
2022-10-21T09:05:01.324Z,6.40
2022-10-21T09:07:34.432Z,6.53
2022-10-21T09:10:03.319Z,6.43
2022-10-21T09:12:41.917Z,6.17
2022-10-21T09:15:44.817Z,5.70
2022-10-21T09:18:12.161Z,6.30
2022-10-21T09:21:05.872Z,6.30
2022-10-21T09:23:48.794Z,6.13
2022-10-21T09:26:34.942Z,6.27
2022-10-21T09:29:09.328Z,5.90
2022-10-21T09:31:36.689Z,6.50
2022-10-21T09:34:04.572Z,6.40
2022-10-21T09:36:39.572Z,6.17
2022-10-21T09:39:19.271Z,6.53
2022-10-21T09:41:50.049Z,6.03
2022-10-21T09:44:18.740Z,6.03
2022-10-21T09:46:46.855Z,6.30
2022-10-21T09:49:54.680Z,6.57
2022-10-21T09:52:18.209Z,7.20
2022-10-21T09:54:46.039Z,6.20
2022-10-21T09:57:19.654Z,6.87
2022-10-21T09:59:52.982Z,6.70
2022-10-21T10:02:25.314Z,6.37
2022-10-21T10:04:52.719Z,6.37
2022-10-21T10:07:21.595Z,5.97
2022-10-21T10:09:49.460Z,5.63
2022-10-21T10:12:21.142Z,6.07
2022-10-21T10:14:48.757Z,5.97
2022-10-21T10:17:22.298Z,6.03
2022-10-21T10:20:09.175Z,6.20
2022-10-21T10:22:38.006Z,6.27
2022-10-21T10:25:24.353Z,6.20
2022-10-21T10:27:56.511Z,6.70
2022-10-21T10:30:25.077Z,5.80
2022-10-21T10:32:53.103Z,5.87
2022-10-21T10:35:30.456Z,5.73
2022-10-21T10:37:59.158Z,6.13
2022-10-21T10:40:38.862Z,6.43
2022-10-21T10:43:15.255Z,6.30
2022-10-21T10:45:56.958Z,6.70
2022-10-21T10:48:28.874Z,5.87
2022-10-21T10:50:58.147Z,5.73
2022-10-21T10:53:36.626Z,6.47
2022-10-21T10:56:19.603Z,6.13
2022-10-21T10:58:54.699Z,6.13
2022-10-21T11:01:27.927Z,6.80
2022-10-21T11:03:58.196Z,6.17
2022-10-21T11:06:34.373Z,6.00
2022-10-21T11:09:02.143Z,6.47
2022-10-21T11:11:31.957Z,6.33
2022-10-21T11:16:44.933Z,6.07
2022-10-21T11:19:35.025Z,6.37
2022-10-21T11:22:08.275Z,6.00
2022-10-21T11:24:35.799Z,6.13
2022-10-21T11:27:22.108Z,6.40
2022-10-21T11:29:49.453Z,6.30
2022-10-21T11:32:35.759Z,6.27
2022-10-21T11:35:21.524Z,6.47
2022-10-21T11:38:04.414Z,6.40
2022-10-21T11:40:49.992Z,5.90
2022-10-21T11:43:19.262Z,7.10
2022-10-21T11:45:46.631Z,6.37
2022-10-21T11:48:21.079Z,6.40
2022-10-21T11:50:58.272Z,6.30
2022-10-21T11:53:33.115Z,7.70
2022-10-21T11:56:19.292Z,7.80
2022-10-21T11:58:46.664Z,7.33
2022-10-21T12:01:16.776Z,6.93
2022-10-21T12:04:04.353Z,7.50
2022-10-21T12:06:34.954Z,7.67
2022-10-21T12:09:03.891Z,7.50
2022-10-21T12:11:42.303Z,7.70
2022-10-21T12:14:18.687Z,7.37
2022-10-21T12:16:46.649Z,7.47
2022-10-21T12:19:14.713Z,7.83
2022-10-21T12:21:44.596Z,7.40
2022-10-21T12:24:11.927Z,7.83
2022-10-21T12:26:43.045Z,7.90
2022-10-21T12:29:18.501Z,7.80
2022-10-21T12:31:49.909Z,6.67
2022-10-21T12:34:17.375Z,7.50
2022-10-21T12:36:54.140Z,7.20
2022-10-21T12:39:33.652Z,6.87
2022-10-21T12:42:07.210Z,6.90
2022-10-21T12:44:34.711Z,6.90
2022-10-21T12:47:03.705Z,6.10
2022-10-21T12:49:35.993Z,6.17
2022-10-21T12:52:03.973Z,5.87
2022-10-21T12:54:32.450Z,5.97
2022-10-21T12:57:10.826Z,5.70
2022-10-21T12:59:42.192Z,5.77
2022-10-21T13:02:23.297Z,6.13
2022-10-21T13:04:54.957Z,6.00
2022-10-21T13:07:22.265Z,6.00
2022-10-21T13:09:52.589Z,6.30
2022-10-21T13:12:25.662Z,6.87
2022-10-21T13:14:54.594Z,6.67
2022-10-21T13:17:21.941Z,6.80
2022-10-21T13:19:50.166Z,6.93
2022-10-21T13:22:23.576Z,7.43
2022-10-21T13:24:50.988Z,7.20
2022-10-21T13:27:24.645Z,7.63
2022-10-21T13:29:52.340Z,7.90
2022-10-21T13:32:27.537Z,7.03
2022-10-21T13:35:14.258Z,5.80
2022-10-21T13:37:51.473Z,7.30
2022-10-21T13:40:20.326Z,6.70
2022-10-21T13:42:50.197Z,7.30
2022-10-21T13:45:50.028Z,7.43
2022-10-21T13:48:18.924Z,6.93
2022-10-21T13:50:47.597Z,7.07
2022-10-21T13:53:36.427Z,7.30
2022-10-21T13:56:08.608Z,7.10
2022-10-21T13:58:39.427Z,7.20
2022-10-21T14:01:15.007Z,6.40
2022-10-21T14:03:42.553Z,6.77
2022-10-21T14:06:10.788Z,6.70
2022-10-21T14:08:42.999Z,7.30
2022-10-21T14:11:13.535Z,7.40
2022-10-21T14:13:41.018Z,7.60
2022-10-21T14:16:09.647Z,6.83
2022-10-21T14:18:38.095Z,6.27
2022-10-21T14:21:06.345Z,6.17
2022-10-21T14:23:34.576Z,6.47
2022-10-21T14:26:09.135Z,6.80
2022-10-21T14:28:37.580Z,6.27
2022-10-21T14:31:11.750Z,6.63
2022-10-21T14:33:41.806Z,6.20
2022-10-21T14:36:11.373Z,6.37
2022-10-21T14:38:51.888Z,6.30
2022-10-21T14:41:22.683Z,7.03
2022-10-21T14:43:50.875Z,6.73
2022-10-21T14:46:18.502Z,6.30
2022-10-21T14:48:54.618Z,6.40
2022-10-21T14:51:22.919Z,6.60
2022-10-21T14:53:53.259Z,6.43
2022-10-21T14:56:23.067Z,6.30
2022-10-21T14:58:55.859Z,6.00
2022-10-21T15:01:23.774Z,5.57
2022-10-21T15:03:54.190Z,5.40
2022-10-21T15:06:29.158Z,5.43
2022-10-21T15:08:56.725Z,5.77
2022-10-21T15:11:28.918Z,6.17
2022-10-21T15:14:16.615Z,5.50
2022-10-21T15:16:50.225Z,12.03
2022-10-21T15:19:23.770Z,7.73
2022-10-21T15:22:04.018Z,6.47
2022-10-21T15:24:36.453Z,5.80
2022-10-21T15:27:04.407Z,5.03
2022-10-21T15:29:36.792Z,5.00
2022-10-21T15:32:04.854Z,5.20
2022-10-21T15:34:32.307Z,5.83
2022-10-21T15:36:59.752Z,5.33
2022-10-21T15:39:27.205Z,5.20
2022-10-21T15:41:57.340Z,5.13
2022-10-21T15:44:28.921Z,5.60
2022-10-21T15:47:01.015Z,5.13
2022-10-21T15:49:32.846Z,6.00
2022-10-21T15:52:00.356Z,5.97
2022-10-21T15:54:27.892Z,4.90
2022-10-21T15:56:55.837Z,4.50
2022-10-21T15:59:27.368Z,4.37
2022-10-21T16:01:55.014Z,10.27
2022-10-21T16:04:22.824Z,8.17
2022-10-21T16:06:50.896Z,4.53
2022-10-21T16:09:21.002Z,4.67
2022-10-21T16:11:59.551Z,4.83
2022-10-21T16:14:29.462Z,7.00
2022-10-21T16:17:00.818Z,10.27
2022-10-21T16:19:28.926Z,6.50
2022-10-21T16:21:56.489Z,4.80
2022-10-21T16:24:24.169Z,4.77
2022-10-21T16:26:51.527Z,4.20
2022-10-21T16:29:20.635Z,4.60
2022-10-21T16:31:48.402Z,4.77
2022-10-21T16:34:15.861Z,4.70
2022-10-21T16:36:43.592Z,4.40
2022-10-21T16:39:18.242Z,5.30
2022-10-21T16:41:45.834Z,4.60
2022-10-21T16:44:13.204Z,3.80
2022-10-21T16:46:41.993Z,4.27
2022-10-21T16:49:14.462Z,4.37
2022-10-21T16:51:42.830Z,4.03
2022-10-21T16:54:10.932Z,4.43
2022-10-21T16:56:38.301Z,5.60
2022-10-21T16:59:05.810Z,5.40
2022-10-21T17:01:33.304Z,5.07
2022-10-21T17:04:00.670Z,4.73
2022-10-21T17:06:28.399Z,4.40
2022-10-21T17:08:56.575Z,4.10
2022-10-21T17:11:27.034Z,4.07
2022-10-21T17:13:54.400Z,4.67
2022-10-21T17:16:21.826Z,6.00
2022-10-21T17:18:49.441Z,7.23
2022-10-21T17:21:24.338Z,8.27
2022-10-21T17:23:53.855Z,5.37
2022-10-21T17:26:21.505Z,4.83
2022-10-21T17:28:49.157Z,4.57
2022-10-21T17:31:23.688Z,4.97
2022-10-21T17:33:51.825Z,4.77
2022-10-21T17:36:19.579Z,4.33
2022-10-21T17:38:47.157Z,4.70
2022-10-21T17:41:15.400Z,4.80
2022-10-21T17:43:42.928Z,4.87
2022-10-21T17:46:16.203Z,4.97
2022-10-21T17:48:43.572Z,5.23
2022-10-21T17:51:10.947Z,4.87
2022-10-21T17:53:38.419Z,5.10
2022-10-21T17:56:07.351Z,4.70
2022-10-21T17:58:34.942Z,5.87
2022-10-21T18:01:07.399Z,6.23
2022-10-21T18:03:35.023Z,6.13
2022-10-21T18:06:05.481Z,6.90
2022-10-21T18:08:32.924Z,6.27
2022-10-21T18:11:02.085Z,5.03
2022-10-21T18:13:30.667Z,5.60
2022-10-21T18:16:03.490Z,6.10
2022-10-21T18:18:30.884Z,6.30
2022-10-21T18:21:05.530Z,5.37
2022-10-21T18:23:32.937Z,6.20
2022-10-21T18:26:04.929Z,6.07
2022-10-21T18:28:33.971Z,5.40
2022-10-21T18:31:02.059Z,6.23
2022-10-21T18:33:29.751Z,5.37
2022-10-21T18:35:57.302Z,5.60
2022-10-21T18:38:24.687Z,4.97
2022-10-21T18:41:01.872Z,4.97
2022-10-21T18:43:29.786Z,5.30
2022-10-21T18:45:57.191Z,5.00
2022-10-21T18:48:24.644Z,4.70
2022-10-21T18:50:51.977Z,4.50
2022-10-21T18:53:19.327Z,5.00
2022-10-21T18:55:46.666Z,4.73
2022-10-21T18:58:14.349Z,5.17
2022-10-21T19:00:41.727Z,5.53
2022-10-21T19:03:09.041Z,5.23
2022-10-21T19:05:36.541Z,5.03
2022-10-21T19:08:03.924Z,5.03
2022-10-21T19:10:31.330Z,5.00
2022-10-21T19:12:58.745Z,5.27
2022-10-21T19:15:26.068Z,4.57
2022-10-21T19:17:53.468Z,5.20
2022-10-21T19:20:20.821Z,4.90
2022-10-21T19:22:48.268Z,4.50
2022-10-21T19:25:15.642Z,4.93
2022-10-21T19:27:43.072Z,4.80
2022-10-21T19:30:10.760Z,4.30
2022-10-21T19:32:38.392Z,4.57
2022-10-21T19:35:06.082Z,5.00
2022-10-21T19:37:35.035Z,5.37
2022-10-21T19:40:02.423Z,5.30
2022-10-21T19:42:29.810Z,5.27
2022-10-21T19:44:57.172Z,5.97
2022-10-21T19:47:24.603Z,5.83
2022-10-21T19:49:51.936Z,5.13
2022-10-21T19:52:19.249Z,5.53
2022-10-21T19:54:46.743Z,5.20
2022-10-21T19:57:14.063Z,5.43
2022-10-21T19:59:41.408Z,6.07
2022-10-21T20:02:09.923Z,5.33
2022-10-21T20:04:37.306Z,5.40
2022-10-21T20:07:04.798Z,5.50
2022-10-21T20:09:35.009Z,4.90
2022-10-21T20:12:05.406Z,4.60
2022-10-21T20:14:32.732Z,4.97
2022-10-21T20:17:00.122Z,5.40
2022-10-21T20:19:27.496Z,5.47
2022-10-21T20:21:54.956Z,5.43
2022-10-21T20:24:22.336Z,5.60
2022-10-21T20:26:51.407Z,5.17
2022-10-21T20:29:19.077Z,5.33
2022-10-21T20:31:46.660Z,5.10
2022-10-21T20:34:14.372Z,5.77
2022-10-21T20:36:41.794Z,5.00
2022-10-21T20:39:10.463Z,7.23
2022-10-21T20:41:38.638Z,6.30
2022-10-21T20:44:09.600Z,5.70
2022-10-21T20:46:37.208Z,6.43
2022-10-21T20:49:05.564Z,5.90
2022-10-21T20:51:33.030Z,7.50
2022-10-21T20:54:01.471Z,6.93
2022-10-21T20:56:29.683Z,8.93
2022-10-21T20:58:57.561Z,6.60
2022-10-21T21:01:26.430Z,7.30
2022-10-21T21:03:54.852Z,7.03
2022-10-21T21:06:23.638Z,6.70
2022-10-21T21:09:14.714Z,5.73
2022-10-21T21:11:38.391Z,5.73
2022-10-21T21:14:05.783Z,5.07
2022-10-21T21:16:33.109Z,6.20
2022-10-21T21:19:04.645Z,5.43
2022-10-21T21:21:33.230Z,12.37
2022-10-21T21:24:00.904Z,6.27
2022-10-21T21:26:32.654Z,9.97
2022-10-21T21:29:00.639Z,9.70
2022-10-21T21:31:28.700Z,6.77
2022-10-21T21:33:56.340Z,11.00
2022-10-21T21:36:23.981Z,7.73
2022-10-21T21:38:52.474Z,6.37
2022-10-21T21:41:19.866Z,6.07
2022-10-21T21:43:48.343Z,5.27
2022-10-21T21:46:22.815Z,5.00
2022-10-21T21:48:56.050Z,5.50
2022-10-21T21:51:26.588Z,5.07
2022-10-21T21:53:54.438Z,5.70
2022-10-21T21:56:22.414Z,5.40
2022-10-21T21:58:50.702Z,5.33
2022-10-21T22:01:22.984Z,5.87
2022-10-21T22:03:51.930Z,5.97
2022-10-21T22:06:20.215Z,6.30
2022-10-21T22:08:47.786Z,6.77
2022-10-21T22:11:16.586Z,8.03
2022-10-21T22:13:43.971Z,11.73
2022-10-21T22:16:13.541Z,31.17
2022-10-21T22:18:41.033Z,16.57
2022-10-21T22:21:09.651Z,13.57
2022-10-21T22:23:37.855Z,8.40
2022-10-21T22:26:05.488Z,10.77
2022-10-21T22:28:32.983Z,11.77
2022-10-21T22:31:04.560Z,11.13
2022-10-21T22:33:32.492Z,7.27
2022-10-21T22:35:59.941Z,6.43
2022-10-21T22:38:29.215Z,6.30
2022-10-21T22:40:57.699Z,6.23
2022-10-21T22:43:26.292Z,8.63
2022-10-21T22:46:01.154Z,6.33
2022-10-21T22:48:41.930Z,5.27
2022-10-21T22:51:09.293Z,5.47
2022-10-21T22:53:36.828Z,5.77
2022-10-21T22:56:04.434Z,8.33
2022-10-21T22:58:31.754Z,11.97
2022-10-21T23:00:59.662Z,12.47
2022-10-21T23:03:27.018Z,16.53
2022-10-21T23:05:54.452Z,16.60
2022-10-21T23:08:21.939Z,16.40
2022-10-21T23:10:49.579Z,12.10
2022-10-21T23:13:17.115Z,8.23
2022-10-21T23:15:45.032Z,8.47
2022-10-21T23:18:12.389Z,7.10
2022-10-21T23:20:39.752Z,7.63
2022-10-21T23:23:07.154Z,7.73
2022-10-21T23:25:34.556Z,7.37
2022-10-21T23:28:01.908Z,10.40
2022-10-21T23:30:29.249Z,7.50
2022-10-21T23:32:56.535Z,7.90
2022-10-21T23:35:23.911Z,7.77
2022-10-21T23:37:51.864Z,7.87
2022-10-21T23:40:19.238Z,10.23
2022-10-21T23:42:46.596Z,8.77
2022-10-21T23:45:14.007Z,7.37
2022-10-21T23:47:41.674Z,6.53
2022-10-21T23:50:10.190Z,6.07
2022-10-21T23:52:38.197Z,6.87
2022-10-21T23:55:09.188Z,7.77
2022-10-21T23:57:36.588Z,7.20
